SDG096 DTTA-LPFR
Flight info
| Callsign | SDG096 |
|---|---|
| Flight time | N/A |
| Altitude | 34000 |
| Route | TISRI W254 DIMAO UZ888 BABOR A31 CHE UA411 MOS ALAGU W13 MARIM |
| Aircraft | A321/M-SDE3FGHIRWY/C |
Departure
| Time | 2026-05-09 07:50 |
|---|---|
| Airport | Tunis Carthage International Airport (DTTA) |
Arrival
| Time | N/A |
|---|---|
| Airport | Faro - Gago Coutinho International Airport (LPFR) |
| Time | Latitude | Longitude | Altitude | Speed | Heading |
|---|---|---|---|---|---|
| 2026-05-09 07:40 | 36.84299 | 10.22041 | 15 ft | 0 kts | 104° |
| 2026-05-09 07:46 | 36.84299 | 10.22042 | 15 ft | 0 kts | 104° |
| 2026-05-09 07:46 | 36.84286 | 10.22047 | 15 ft | 6 kts | 216° |
| 2026-05-09 07:47 | 36.84239 | 10.21975 | 14 ft | 12 kts | 237° |
| 2026-05-09 07:47 | 36.84180 | 10.21920 | 14 ft | 10 kts | 223° |
| 2026-05-09 07:47 | 36.84118 | 10.21880 | 15 ft | 10 kts | 196° |
| 2026-05-09 07:47 | 36.84045 | 10.21858 | 15 ft | 11 kts | 193° |
| 2026-05-09 07:48 | 36.83959 | 10.21848 | 14 ft | 13 kts | 165° |
| 2026-05-09 07:48 | 36.83904 | 10.21909 | 12 ft | 10 kts | 104° |
| 2026-05-09 07:48 | 36.83885 | 10.22011 | 11 ft | 13 kts | 97° |
| 2026-05-09 07:48 | 36.83876 | 10.22137 | 9 ft | 15 kts | 96° |
| 2026-05-09 07:49 | 36.83892 | 10.22269 | 9 ft | 15 kts | 61° |
| 2026-05-09 07:49 | 36.83971 | 10.22363 | 9 ft | 16 kts | 36° |
| 2026-05-09 07:49 | 36.84074 | 10.22418 | 9 ft | 16 kts | 14° |
| 2026-05-09 07:49 | 36.84245 | 10.22465 | 9 ft | 55 kts | 11° |
| 2026-05-09 07:50 | 36.84915 | 10.22651 | 14 ft | 140 kts | 10° |
| 2026-05-09 07:50 | 36.86106 | 10.23007 | 21 ft | 209 kts | 11° |
| 2026-05-09 07:50 | 36.87578 | 10.23291 | 960 ft | 219 kts | 12° |
| 2026-05-09 07:50 | 36.89149 | 10.23726 | 1556 ft | 258 kts | 14° |
| 2026-05-09 07:51 | 36.90974 | 10.24265 | 1881 ft | 264 kts | 13° |
| 2026-05-09 07:51 | 36.92650 | 10.24737 | 2201 ft | 234 kts | 13° |
| 2026-05-09 07:51 | 36.94187 | 10.25142 | 2451 ft | 225 kts | 7° |
| 2026-05-09 07:51 | 36.95705 | 10.24853 | 2777 ft | 226 kts | 330° |
| 2026-05-09 07:52 | 36.96833 | 10.23520 | 3393 ft | 228 kts | 297° |
| 2026-05-09 07:52 | 36.97211 | 10.21653 | 4124 ft | 225 kts | 265° |
| 2026-05-09 07:52 | 36.96736 | 10.19848 | 4807 ft | 224 kts | 233° |
| 2026-05-09 07:52 | 36.95575 | 10.18596 | 5480 ft | 225 kts | 213° |
| 2026-05-09 07:53 | 36.94209 | 10.17592 | 6104 ft | 229 kts | 212° |
| 2026-05-09 07:53 | 36.92825 | 10.16609 | 6740 ft | 231 kts | 211° |
| 2026-05-09 07:53 | 36.91450 | 10.15637 | 7461 ft | 229 kts | 211° |
| 2026-05-09 07:53 | 36.90091 | 10.14665 | 8117 ft | 229 kts | 218° |
| 2026-05-09 07:54 | 36.89009 | 10.13180 | 8467 ft | 237 kts | 245° |
| 2026-05-09 07:54 | 36.88255 | 10.11291 | 8811 ft | 251 kts | 245° |
| 2026-05-09 07:54 | 36.87429 | 10.09294 | 9171 ft | 266 kts | 245° |
| 2026-05-09 07:54 | 36.86568 | 10.07258 | 9783 ft | 270 kts | 244° |
| 2026-05-09 07:55 | 36.85696 | 10.05222 | 10493 ft | 270 kts | 244° |
| 2026-05-09 07:55 | 36.84772 | 10.03098 | 10846 ft | 284 kts | 244° |
| 2026-05-09 07:55 | 36.83809 | 10.00889 | 11130 ft | 299 kts | 244° |
| 2026-05-09 07:55 | 36.82786 | 9.98544 | 11417 ft | 314 kts | 244° |
| 2026-05-09 07:56 | 36.81708 | 9.96082 | 11693 ft | 329 kts | 244° |
| 2026-05-09 07:56 | 36.80621 | 9.93618 | 11952 ft | 343 kts | 244° |
| 2026-05-09 07:56 | 36.79448 | 9.90956 | 12213 ft | 358 kts | 243° |
| 2026-05-09 07:56 | 36.78229 | 9.88194 | 12469 ft | 372 kts | 243° |
| 2026-05-09 07:57 | 36.77003 | 9.85311 | 12860 ft | 381 kts | 246° |
| 2026-05-09 07:57 | 36.75919 | 9.82304 | 13492 ft | 382 kts | 250° |
| 2026-05-09 07:57 | 36.75003 | 9.79190 | 14129 ft | 384 kts | 253° |
| 2026-05-09 07:57 | 36.74223 | 9.75982 | 14723 ft | 386 kts | 255° |
| 2026-05-09 07:58 | 36.73475 | 9.72810 | 15286 ft | 389 kts | 255° |
| 2026-05-09 07:58 | 36.72707 | 9.69537 | 15852 ft | 392 kts | 255° |
| 2026-05-09 07:58 | 36.71939 | 9.66272 | 16400 ft | 395 kts | 255° |
| 2026-05-09 07:58 | 36.71167 | 9.62993 | 16934 ft | 397 kts | 255° |
| 2026-05-09 07:59 | 36.70394 | 9.59724 | 17452 ft | 400 kts | 255° |
| 2026-05-09 07:59 | 36.69604 | 9.56390 | 17960 ft | 402 kts | 255° |
| 2026-05-09 07:59 | 36.68816 | 9.53063 | 18460 ft | 405 kts | 255° |
| 2026-05-09 07:59 | 36.68006 | 9.49657 | 18959 ft | 407 kts | 255° |
| 2026-05-09 08:00 | 36.67206 | 9.46294 | 19438 ft | 409 kts | 255° |
| 2026-05-09 08:00 | 36.66405 | 9.42930 | 19900 ft | 411 kts | 255° |
| 2026-05-09 08:00 | 36.65591 | 9.39517 | 20356 ft | 412 kts | 255° |
| 2026-05-09 08:00 | 36.64778 | 9.36099 | 20791 ft | 414 kts | 255° |
| 2026-05-09 08:01 | 36.63957 | 9.32652 | 21215 ft | 417 kts | 254° |
| 2026-05-09 08:01 | 36.63132 | 9.29191 | 21635 ft | 419 kts | 254° |
| 2026-05-09 08:01 | 36.62296 | 9.25692 | 22051 ft | 421 kts | 254° |
| 2026-05-09 08:01 | 36.61459 | 9.22201 | 22453 ft | 423 kts | 254° |
| 2026-05-09 08:02 | 36.60617 | 9.18701 | 22846 ft | 424 kts | 254° |
| 2026-05-09 08:02 | 36.59771 | 9.15192 | 23228 ft | 426 kts | 254° |
| 2026-05-09 08:02 | 36.58927 | 9.11697 | 23597 ft | 428 kts | 254° |
| 2026-05-09 08:02 | 36.58074 | 9.08161 | 24048 ft | 427 kts | 254° |
| 2026-05-09 08:03 | 36.57217 | 9.04621 | 24574 ft | 425 kts | 254° |
| 2026-05-09 08:03 | 36.56361 | 9.01101 | 25097 ft | 422 kts | 254° |
| 2026-05-09 08:03 | 36.55516 | 8.97622 | 25590 ft | 420 kts | 254° |
| 2026-05-09 08:03 | 36.54678 | 8.94182 | 26062 ft | 418 kts | 254° |
| 2026-05-09 08:04 | 36.53842 | 8.90743 | 26521 ft | 416 kts | 254° |
| 2026-05-09 08:04 | 36.53014 | 8.87331 | 26952 ft | 415 kts | 254° |
| 2026-05-09 08:04 | 36.52180 | 8.83906 | 27371 ft | 413 kts | 254° |
| 2026-05-09 08:04 | 36.51345 | 8.80485 | 27785 ft | 411 kts | 253° |
| 2026-05-09 08:05 | 36.50526 | 8.77138 | 28170 ft | 410 kts | 253° |
| 2026-05-09 08:05 | 36.49689 | 8.73722 | 28558 ft | 409 kts | 253° |
| 2026-05-09 08:05 | 36.48872 | 8.70394 | 28931 ft | 407 kts | 253° |
| 2026-05-09 08:05 | 36.48049 | 8.67048 | 29294 ft | 406 kts | 253° |
| 2026-05-09 08:06 | 36.47228 | 8.63712 | 29647 ft | 404 kts | 253° |
| 2026-05-09 08:06 | 36.46401 | 8.60357 | 29995 ft | 403 kts | 253° |
| 2026-05-09 08:06 | 36.45591 | 8.57077 | 30328 ft | 401 kts | 253° |
| 2026-05-09 08:06 | 36.44763 | 8.53739 | 30633 ft | 401 kts | 253° |
| 2026-05-09 08:07 | 36.43950 | 8.50458 | 30907 ft | 400 kts | 253° |
| 2026-05-09 08:07 | 36.43153 | 8.47162 | 31171 ft | 400 kts | 255° |
| 2026-05-09 08:07 | 36.42471 | 8.43846 | 31412 ft | 400 kts | 257° |
| 2026-05-09 08:07 | 36.41910 | 8.40473 | 31657 ft | 400 kts | 259° |
| 2026-05-09 08:08 | 36.41475 | 8.37067 | 31898 ft | 399 kts | 262° |
| 2026-05-09 08:08 | 36.41169 | 8.33617 | 32130 ft | 400 kts | 264° |
| 2026-05-09 08:08 | 36.40997 | 8.30209 | 32383 ft | 400 kts | 266° |
| 2026-05-09 08:08 | 36.40954 | 8.26772 | 32636 ft | 400 kts | 269° |
| 2026-05-09 08:09 | 36.41036 | 8.23326 | 32891 ft | 399 kts | 271° |
| 2026-05-09 08:09 | 36.41153 | 8.19898 | 33144 ft | 399 kts | 271° |
| 2026-05-09 08:09 | 36.41272 | 8.16457 | 33368 ft | 399 kts | 271° |
| 2026-05-09 08:09 | 36.41390 | 8.13060 | 33587 ft | 398 kts | 271° |
| 2026-05-09 08:10 | 36.41512 | 8.09607 | 33813 ft | 398 kts | 271° |
| 2026-05-09 08:10 | 36.41631 | 8.06192 | 34001 ft | 398 kts | 271° |
| 2026-05-09 08:10 | 36.41751 | 8.02762 | 33994 ft | 397 kts | 271° |
| 2026-05-09 08:11 | 36.41988 | 7.95920 | 33983 ft | 397 kts | 271° |
| 2026-05-09 08:11 | 36.42220 | 7.89124 | 33962 ft | 397 kts | 271° |
| 2026-05-09 08:12 | 36.42562 | 7.78861 | 33945 ft | 397 kts | 271° |
| 2026-05-09 08:12 | 36.42785 | 7.72038 | 33943 ft | 397 kts | 271° |
| 2026-05-09 08:13 | 36.43005 | 7.65177 | 33942 ft | 397 kts | 271° |
| 2026-05-09 08:13 | 36.43220 | 7.58355 | 33942 ft | 396 kts | 271° |
| 2026-05-09 08:14 | 36.43430 | 7.51572 | 33942 ft | 396 kts | 271° |
| 2026-05-09 08:14 | 36.43639 | 7.44712 | 33942 ft | 396 kts | 271° |
| 2026-05-09 08:15 | 36.43841 | 7.37938 | 33942 ft | 395 kts | 271° |
| 2026-05-09 08:15 | 36.44040 | 7.31097 | 33943 ft | 395 kts | 270° |
| 2026-05-09 08:16 | 36.44235 | 7.24312 | 33942 ft | 395 kts | 270° |
| 2026-05-09 08:16 | 36.44425 | 7.17526 | 33942 ft | 395 kts | 270° |
| 2026-05-09 08:17 | 36.44611 | 7.10751 | 33945 ft | 394 kts | 270° |
| 2026-05-09 08:17 | 36.44796 | 7.03932 | 33951 ft | 394 kts | 270° |
| 2026-05-09 08:18 | 36.44974 | 6.97163 | 33958 ft | 395 kts | 270° |
| 2026-05-09 08:18 | 36.45149 | 6.90380 | 33965 ft | 394 kts | 269° |
| 2026-05-09 08:19 | 36.45320 | 6.83577 | 33968 ft | 394 kts | 269° |
| 2026-05-09 08:19 | 36.45488 | 6.76781 | 33969 ft | 394 kts | 269° |
| 2026-05-09 08:20 | 36.45651 | 6.69987 | 33969 ft | 394 kts | 269° |
| 2026-05-09 08:20 | 36.45811 | 6.63220 | 33969 ft | 394 kts | 269° |
| 2026-05-09 08:21 | 36.45966 | 6.56431 | 33969 ft | 394 kts | 269° |
| 2026-05-09 08:21 | 36.46117 | 6.49645 | 33969 ft | 394 kts | 269° |
| 2026-05-09 08:22 | 36.46266 | 6.42822 | 33969 ft | 394 kts | 269° |
| 2026-05-09 08:22 | 36.46409 | 6.36061 | 33969 ft | 394 kts | 269° |
| 2026-05-09 08:23 | 36.46550 | 6.29230 | 33969 ft | 395 kts | 268° |
| 2026-05-09 08:23 | 36.46686 | 6.22431 | 33969 ft | 395 kts | 268° |
| 2026-05-09 08:24 | 36.46819 | 6.15639 | 33969 ft | 395 kts | 268° |
| 2026-05-09 08:24 | 36.46947 | 6.08819 | 33969 ft | 395 kts | 268° |
| 2026-05-09 08:25 | 36.47069 | 6.02046 | 33969 ft | 395 kts | 268° |
| 2026-05-09 08:25 | 36.47188 | 5.95247 | 33969 ft | 395 kts | 268° |
| 2026-05-09 08:26 | 36.47303 | 5.88395 | 33969 ft | 395 kts | 268° |
| 2026-05-09 08:26 | 36.47419 | 5.81600 | 33969 ft | 395 kts | 268° |
| 2026-05-09 08:27 | 36.47533 | 5.74771 | 33969 ft | 395 kts | 268° |
| 2026-05-09 08:27 | 36.47639 | 5.68002 | 33969 ft | 395 kts | 268° |
| 2026-05-09 08:28 | 36.47739 | 5.61206 | 33969 ft | 395 kts | 268° |
| 2026-05-09 08:28 | 36.47836 | 5.54403 | 33969 ft | 395 kts | 268° |
| 2026-05-09 08:29 | 36.47928 | 5.47561 | 33969 ft | 395 kts | 268° |
| 2026-05-09 08:29 | 36.48016 | 5.40796 | 33969 ft | 395 kts | 268° |
| 2026-05-09 08:30 | 36.48100 | 5.33983 | 33971 ft | 395 kts | 267° |
| 2026-05-09 08:30 | 36.48180 | 5.27167 | 33969 ft | 394 kts | 267° |
| 2026-05-09 08:31 | 36.48255 | 5.20380 | 33969 ft | 394 kts | 267° |
| 2026-05-09 08:31 | 36.48326 | 5.13571 | 33967 ft | 394 kts | 267° |
| 2026-05-09 08:32 | 36.48393 | 5.06748 | 33967 ft | 395 kts | 267° |
| 2026-05-09 08:33 | 36.48923 | 4.96518 | 33959 ft | 398 kts | 274° |
| 2026-05-09 08:33 | 36.49744 | 4.89735 | 33936 ft | 399 kts | 275° |
| 2026-05-09 08:34 | 36.50581 | 4.82930 | 33906 ft | 399 kts | 275° |
| 2026-05-09 08:34 | 36.51412 | 4.76143 | 33877 ft | 399 kts | 275° |
| 2026-05-09 08:35 | 36.52239 | 4.69374 | 33858 ft | 399 kts | 275° |
| 2026-05-09 08:35 | 36.53067 | 4.62563 | 33850 ft | 399 kts | 275° |
| 2026-05-09 08:36 | 36.53892 | 4.55745 | 33845 ft | 399 kts | 275° |
| 2026-05-09 08:36 | 36.54710 | 4.48943 | 33840 ft | 399 kts | 275° |
| 2026-05-09 08:37 | 36.55528 | 4.42113 | 33838 ft | 400 kts | 275° |
| 2026-05-09 08:37 | 36.56339 | 4.35308 | 33836 ft | 400 kts | 275° |
| 2026-05-09 08:38 | 36.57130 | 4.28630 | 33833 ft | 399 kts | 274° |
| 2026-05-09 08:38 | 36.57935 | 4.21802 | 33830 ft | 399 kts | 274° |
| 2026-05-09 08:39 | 36.58736 | 4.14977 | 33827 ft | 399 kts | 274° |
| 2026-05-09 08:39 | 36.59532 | 4.08158 | 33825 ft | 399 kts | 274° |
| 2026-05-09 08:40 | 36.60326 | 4.01330 | 33818 ft | 399 kts | 274° |
| 2026-05-09 08:40 | 36.61121 | 3.94466 | 33799 ft | 401 kts | 274° |
| 2026-05-09 08:41 | 36.61904 | 3.87647 | 33776 ft | 401 kts | 274° |
| 2026-05-09 08:41 | 36.62690 | 3.80770 | 33751 ft | 401 kts | 274° |
| 2026-05-09 08:42 | 36.63473 | 3.73890 | 33734 ft | 401 kts | 274° |
| 2026-05-09 08:42 | 36.64246 | 3.67042 | 33727 ft | 401 kts | 274° |
| 2026-05-09 08:43 | 36.65018 | 3.60179 | 33724 ft | 401 kts | 274° |
| 2026-05-09 08:43 | 36.65764 | 3.53325 | 33723 ft | 401 kts | 273° |
| 2026-05-09 08:44 | 36.66492 | 3.46458 | 33723 ft | 401 kts | 273° |
| 2026-05-09 08:44 | 36.67218 | 3.39568 | 33723 ft | 401 kts | 273° |
| 2026-05-09 08:45 | 36.67936 | 3.32718 | 33724 ft | 400 kts | 272° |
| 2026-05-09 08:45 | 36.68558 | 3.25853 | 33722 ft | 399 kts | 269° |
| 2026-05-09 08:46 | 36.68686 | 3.18982 | 33722 ft | 396 kts | 264° |
| 2026-05-09 08:46 | 36.68298 | 3.12154 | 33723 ft | 395 kts | 261° |
| 2026-05-09 08:47 | 36.67738 | 3.05369 | 33724 ft | 394 kts | 261° |
| 2026-05-09 08:47 | 36.67166 | 2.98589 | 33728 ft | 394 kts | 261° |
| 2026-05-09 08:48 | 36.66587 | 2.91788 | 33721 ft | 394 kts | 261° |
| 2026-05-09 08:48 | 36.66007 | 2.85035 | 33720 ft | 394 kts | 261° |
| 2026-05-09 08:49 | 36.65421 | 2.78283 | 33721 ft | 394 kts | 261° |
| 2026-05-09 08:49 | 36.64829 | 2.71489 | 33721 ft | 394 kts | 261° |
| 2026-05-09 08:50 | 36.64236 | 2.64733 | 33722 ft | 394 kts | 261° |
| 2026-05-09 08:50 | 36.63640 | 2.57979 | 33722 ft | 393 kts | 260° |
| 2026-05-09 08:51 | 36.63041 | 2.51263 | 33723 ft | 393 kts | 260° |
| 2026-05-09 08:51 | 36.62432 | 2.44473 | 33724 ft | 393 kts | 260° |
| 2026-05-09 08:52 | 36.61826 | 2.37755 | 33724 ft | 393 kts | 260° |
| 2026-05-09 08:52 | 36.61213 | 2.31002 | 33726 ft | 393 kts | 260° |
| 2026-05-09 08:53 | 36.60440 | 2.24287 | 33727 ft | 391 kts | 256° |
| 2026-05-09 08:53 | 36.59171 | 2.17715 | 33728 ft | 390 kts | 251° |
| 2026-05-09 08:54 | 36.57426 | 2.11384 | 33731 ft | 389 kts | 247° |
| 2026-05-09 08:54 | 36.55365 | 2.05207 | 33740 ft | 389 kts | 246° |
| 2026-05-09 08:55 | 36.53277 | 1.99002 | 33751 ft | 389 kts | 246° |
| 2026-05-09 08:55 | 36.51181 | 1.92802 | 33762 ft | 389 kts | 245° |
| 2026-05-09 08:56 | 36.49088 | 1.86641 | 33771 ft | 389 kts | 245° |
| 2026-05-09 08:56 | 36.46981 | 1.80455 | 33775 ft | 389 kts | 245° |
| 2026-05-09 08:57 | 36.44883 | 1.74307 | 33776 ft | 389 kts | 245° |
| 2026-05-09 08:57 | 36.42769 | 1.68127 | 33776 ft | 389 kts | 245° |
| 2026-05-09 08:58 | 36.40664 | 1.61984 | 33776 ft | 389 kts | 245° |
| 2026-05-09 08:58 | 36.38544 | 1.55814 | 33776 ft | 389 kts | 245° |
| 2026-05-09 08:59 | 36.36424 | 1.49652 | 33776 ft | 389 kts | 245° |
| 2026-05-09 08:59 | 36.34354 | 1.43476 | 33776 ft | 389 kts | 246° |
| 2026-05-09 09:00 | 36.32275 | 1.37259 | 33776 ft | 389 kts | 246° |
| 2026-05-09 09:00 | 36.30214 | 1.31112 | 33776 ft | 389 kts | 245° |
| 2026-05-09 09:01 | 36.28132 | 1.24902 | 33776 ft | 389 kts | 245° |
| 2026-05-09 09:01 | 36.26057 | 1.18746 | 33776 ft | 389 kts | 245° |
| 2026-05-09 09:02 | 36.23969 | 1.12568 | 33779 ft | 390 kts | 245° |
| 2026-05-09 09:02 | 36.21870 | 1.06375 | 33784 ft | 390 kts | 245° |
| 2026-05-09 09:03 | 36.19772 | 1.00202 | 33790 ft | 390 kts | 245° |
| 2026-05-09 09:03 | 36.17676 | 0.94046 | 33797 ft | 390 kts | 245° |
| 2026-05-09 09:04 | 36.15559 | 0.87844 | 33802 ft | 390 kts | 245° |
| 2026-05-09 09:04 | 36.13463 | 0.81713 | 33804 ft | 390 kts | 244° |
| 2026-05-09 09:05 | 36.11346 | 0.75533 | 33804 ft | 391 kts | 244° |
| 2026-05-09 09:05 | 36.09223 | 0.69352 | 33804 ft | 391 kts | 244° |
| 2026-05-09 09:06 | 36.07100 | 0.63180 | 33804 ft | 391 kts | 244° |
| 2026-05-09 09:06 | 36.04971 | 0.57008 | 33804 ft | 391 kts | 244° |
| 2026-05-09 09:07 | 36.02835 | 0.50828 | 33804 ft | 391 kts | 244° |
| 2026-05-09 09:07 | 36.00699 | 0.44661 | 33803 ft | 392 kts | 244° |
| 2026-05-09 09:08 | 35.98548 | 0.38468 | 33804 ft | 392 kts | 244° |
| 2026-05-09 09:08 | 35.96401 | 0.32290 | 33807 ft | 392 kts | 244° |
| 2026-05-09 09:09 | 35.94255 | 0.26110 | 33810 ft | 392 kts | 244° |
| 2026-05-09 09:09 | 35.92559 | 0.19713 | 33811 ft | 398 kts | 254° |
| 2026-05-09 09:10 | 35.92004 | 0.12912 | 33814 ft | 405 kts | 265° |
| 2026-05-09 09:10 | 35.92683 | 0.05961 | 33816 ft | 415 kts | 276° |
| 2026-05-09 09:11 | 35.94556 | -0.00864 | 33829 ft | 422 kts | 283° |
| 2026-05-09 09:11 | 35.96703 | -0.07510 | 33838 ft | 417 kts | 283° |
| 2026-05-09 09:12 | 35.98846 | -0.14186 | 33843 ft | 416 kts | 283° |
| 2026-05-09 09:12 | 36.00973 | -0.20840 | 33840 ft | 420 kts | 283° |
| 2026-05-09 09:13 | 36.03121 | -0.27577 | 33853 ft | 427 kts | 283° |
| 2026-05-09 09:13 | 36.05289 | -0.34370 | 33858 ft | 426 kts | 283° |
| 2026-05-09 09:14 | 36.07453 | -0.41164 | 33859 ft | 425 kts | 283° |
| 2026-05-09 09:14 | 36.09613 | -0.47965 | 33860 ft | 425 kts | 283° |
| 2026-05-09 09:15 | 36.11761 | -0.54744 | 33859 ft | 425 kts | 283° |
| 2026-05-09 09:15 | 36.13903 | -0.61527 | 33859 ft | 425 kts | 283° |
| 2026-05-09 09:16 | 36.16052 | -0.68352 | 33860 ft | 425 kts | 282° |
| 2026-05-09 09:16 | 36.19239 | -0.78517 | 33860 ft | 424 kts | 282° |
| 2026-05-09 09:17 | 36.21366 | -0.85311 | 33859 ft | 423 kts | 282° |
| 2026-05-09 09:17 | 36.23493 | -0.92118 | 33859 ft | 423 kts | 282° |
| 2026-05-09 09:18 | 36.25596 | -0.98864 | 33860 ft | 423 kts | 282° |
| 2026-05-09 09:18 | 36.27719 | -1.05686 | 33866 ft | 423 kts | 282° |
| 2026-05-09 09:19 | 36.29826 | -1.12472 | 33877 ft | 423 kts | 282° |
| 2026-05-09 09:19 | 36.31918 | -1.19233 | 33891 ft | 423 kts | 282° |
| 2026-05-09 09:20 | 36.34012 | -1.26012 | 33904 ft | 422 kts | 282° |
| 2026-05-09 09:20 | 36.36114 | -1.32826 | 33911 ft | 421 kts | 282° |
| 2026-05-09 09:21 | 36.38190 | -1.39582 | 33914 ft | 421 kts | 282° |
| 2026-05-09 09:21 | 36.40266 | -1.46351 | 33914 ft | 421 kts | 282° |
| 2026-05-09 09:22 | 36.42336 | -1.53116 | 33915 ft | 421 kts | 282° |
| 2026-05-09 09:22 | 36.44410 | -1.59908 | 33914 ft | 420 kts | 282° |
| 2026-05-09 09:23 | 36.46466 | -1.66663 | 33917 ft | 419 kts | 282° |
| 2026-05-09 09:23 | 36.48520 | -1.73440 | 33914 ft | 419 kts | 282° |
| 2026-05-09 09:24 | 36.50570 | -1.80214 | 33914 ft | 419 kts | 282° |
| 2026-05-09 09:24 | 36.52615 | -1.86983 | 33914 ft | 419 kts | 282° |
| 2026-05-09 09:25 | 36.54648 | -1.93725 | 33914 ft | 419 kts | 282° |
| 2026-05-09 09:25 | 36.56676 | -2.00520 | 33914 ft | 414 kts | 284° |
| 2026-05-09 09:26 | 36.58688 | -2.07211 | 33914 ft | 415 kts | 284° |
| 2026-05-09 09:26 | 36.60709 | -2.13935 | 33913 ft | 416 kts | 284° |
| 2026-05-09 09:27 | 36.62722 | -2.20664 | 33914 ft | 417 kts | 284° |
| 2026-05-09 09:27 | 36.64746 | -2.27451 | 33914 ft | 418 kts | 284° |
| 2026-05-09 09:28 | 36.66752 | -2.34198 | 33914 ft | 419 kts | 284° |
| 2026-05-09 09:28 | 36.68773 | -2.41010 | 33914 ft | 420 kts | 284° |
| 2026-05-09 09:29 | 36.70789 | -2.47819 | 33914 ft | 420 kts | 284° |
| 2026-05-09 09:29 | 36.72809 | -2.54664 | 33914 ft | 421 kts | 284° |
| 2026-05-09 09:30 | 36.74822 | -2.61503 | 33914 ft | 422 kts | 284° |
| 2026-05-09 09:30 | 36.76844 | -2.68393 | 33914 ft | 422 kts | 283° |
| 2026-05-09 09:31 | 36.78847 | -2.75251 | 33914 ft | 423 kts | 284° |
| 2026-05-09 09:32 | 36.81863 | -2.85585 | 33914 ft | 424 kts | 284° |
| 2026-05-09 09:32 | 36.83873 | -2.92490 | 33915 ft | 424 kts | 284° |
| 2026-05-09 09:33 | 36.85890 | -2.99439 | 33918 ft | 425 kts | 284° |
| 2026-05-09 09:33 | 36.87900 | -3.06375 | 33924 ft | 425 kts | 284° |
| 2026-05-09 09:34 | 36.89896 | -3.13287 | 33931 ft | 426 kts | 284° |
| 2026-05-09 09:34 | 36.91898 | -3.20230 | 33937 ft | 426 kts | 284° |
| 2026-05-09 09:36 | 36.99887 | -3.48125 | 33941 ft | 427 kts | 284° |
| 2026-05-09 09:37 | 37.01883 | -3.55137 | 33940 ft | 428 kts | 284° |
| 2026-05-09 09:37 | 37.03876 | -3.62163 | 33941 ft | 428 kts | 284° |
| 2026-05-09 09:38 | 37.05823 | -3.69047 | 33941 ft | 429 kts | 283° |
| 2026-05-09 09:38 | 37.07807 | -3.76090 | 33941 ft | 429 kts | 283° |
| 2026-05-09 09:39 | 37.09792 | -3.83147 | 33941 ft | 429 kts | 283° |
| 2026-05-09 09:39 | 37.11786 | -3.90171 | 33940 ft | 430 kts | 284° |
| 2026-05-09 09:40 | 37.13788 | -3.97237 | 33936 ft | 430 kts | 283° |
| 2026-05-09 09:40 | 37.15768 | -4.04300 | 33929 ft | 428 kts | 284° |
| 2026-05-09 09:41 | 37.17728 | -4.11317 | 33920 ft | 428 kts | 284° |
| 2026-05-09 09:41 | 37.19690 | -4.18367 | 33911 ft | 429 kts | 284° |
| 2026-05-09 09:42 | 37.21651 | -4.25436 | 33906 ft | 429 kts | 284° |
| 2026-05-09 09:42 | 37.23596 | -4.32471 | 33901 ft | 429 kts | 284° |
| 2026-05-09 09:43 | 37.25550 | -4.39557 | 33897 ft | 428 kts | 284° |
| 2026-05-09 09:43 | 37.27484 | -4.46590 | 33894 ft | 428 kts | 284° |
| 2026-05-09 09:44 | 37.29419 | -4.53646 | 33891 ft | 428 kts | 284° |
| 2026-05-09 09:44 | 37.31341 | -4.60671 | 33888 ft | 427 kts | 284° |
| 2026-05-09 09:45 | 37.33265 | -4.67732 | 33888 ft | 426 kts | 283° |
| 2026-05-09 09:45 | 37.35177 | -4.74781 | 33888 ft | 425 kts | 283° |
| 2026-05-09 09:46 | 37.37085 | -4.81821 | 33888 ft | 425 kts | 283° |
| 2026-05-09 09:46 | 37.38982 | -4.88837 | 33886 ft | 424 kts | 283° |
| 2026-05-09 09:47 | 37.40866 | -4.95821 | 33881 ft | 423 kts | 284° |
| 2026-05-09 09:47 | 37.42748 | -5.02816 | 33874 ft | 422 kts | 284° |
| 2026-05-09 09:48 | 37.44620 | -5.09788 | 33867 ft | 422 kts | 284° |
| 2026-05-09 09:48 | 37.46495 | -5.16796 | 33863 ft | 421 kts | 284° |
| 2026-05-09 09:49 | 37.48356 | -5.23765 | 33861 ft | 420 kts | 284° |
| 2026-05-09 09:49 | 37.50210 | -5.30726 | 33861 ft | 420 kts | 284° |
| 2026-05-09 09:50 | 37.52052 | -5.37664 | 33861 ft | 419 kts | 284° |
| 2026-05-09 09:50 | 37.53888 | -5.44597 | 33862 ft | 419 kts | 284° |
| 2026-05-09 09:51 | 37.55732 | -5.51581 | 33861 ft | 418 kts | 284° |
| 2026-05-09 09:51 | 37.57549 | -5.58478 | 33861 ft | 417 kts | 284° |
| 2026-05-09 09:52 | 37.59380 | -5.65444 | 33862 ft | 417 kts | 284° |
| 2026-05-09 09:52 | 37.61188 | -5.72369 | 33861 ft | 416 kts | 284° |
| 2026-05-09 09:53 | 37.62991 | -5.79279 | 33861 ft | 416 kts | 284° |
| 2026-05-09 09:53 | 37.64800 | -5.86226 | 33861 ft | 417 kts | 284° |
| 2026-05-09 09:54 | 37.66592 | -5.93129 | 33861 ft | 416 kts | 284° |
| 2026-05-09 09:54 | 37.68391 | -6.00069 | 33861 ft | 415 kts | 284° |
| 2026-05-09 09:55 | 37.70173 | -6.06961 | 33861 ft | 414 kts | 284° |
| 2026-05-09 09:55 | 37.71952 | -6.13868 | 33861 ft | 414 kts | 284° |
| 2026-05-09 09:56 | 37.73735 | -6.20805 | 33861 ft | 414 kts | 284° |
| 2026-05-09 09:56 | 37.75500 | -6.27694 | 33861 ft | 414 kts | 284° |
| 2026-05-09 09:57 | 37.77267 | -6.34604 | 33861 ft | 413 kts | 284° |
| 2026-05-09 09:57 | 37.79014 | -6.41462 | 33858 ft | 413 kts | 284° |
| 2026-05-09 09:58 | 37.80777 | -6.48395 | 33853 ft | 412 kts | 284° |
| 2026-05-09 09:58 | 37.82514 | -6.55247 | 33847 ft | 411 kts | 284° |
| 2026-05-09 09:59 | 37.84257 | -6.62138 | 33841 ft | 410 kts | 284° |
| 2026-05-09 09:59 | 37.85984 | -6.69001 | 33836 ft | 409 kts | 283° |
| 2026-05-09 10:00 | 37.87698 | -6.75835 | 33830 ft | 408 kts | 283° |
| 2026-05-09 10:00 | 37.89399 | -6.82624 | 33824 ft | 407 kts | 283° |
| 2026-05-09 10:01 | 37.91108 | -6.89462 | 33731 ft | 406 kts | 283° |
| 2026-05-09 10:01 | 37.91949 | -6.92831 | 33476 ft | 404 kts | 283° |
| 2026-05-09 10:01 | 37.92796 | -6.96224 | 33226 ft | 400 kts | 283° |
| 2026-05-09 10:01 | 37.93631 | -6.99573 | 32976 ft | 397 kts | 283° |
| 2026-05-09 10:02 | 37.94454 | -7.02881 | 32729 ft | 393 kts | 283° |
| 2026-05-09 10:02 | 37.95264 | -7.06143 | 32485 ft | 392 kts | 282° |
| 2026-05-09 10:02 | 37.96083 | -7.09452 | 32238 ft | 391 kts | 282° |
| 2026-05-09 10:02 | 37.96897 | -7.12741 | 31991 ft | 391 kts | 282° |
| 2026-05-09 10:03 | 37.97700 | -7.15991 | 31747 ft | 391 kts | 282° |